Time;durP1;ratioP1;P1;durP2;ratioP2;P2;SDS_P1;SDS_P2;PMS_P1;PMS_P2;Temp;Humidity;BMP_temperature;BMP_pressure;BME280_temperature;BME280_humidity;BME280_pressure;Samples;Min_cycle;Max_cycle;Signal;HPM_P1;HPM_P2
2022/10/31 00:02:22;;;;;;;14.93;9.02;;;13.90;99.90;;;;;;4998696;28;20038;-80
2022/10/31 00:04:51;;;;;;;13.38;9.10;;;13.90;99.90;;;;;;4982439;28;20034;-80
2022/10/31 00:07:16;;;;;;;14.52;8.82;;;13.90;99.90;;;;;;4998674;28;20044;-80
2022/10/31 00:09:42;;;;;;;18.02;9.25;;;13.80;99.90;;;;;;4998759;28;20042;-81
2022/10/31 00:12:07;;;;;;;15.68;9.07;;;13.80;99.90;;;;;;4998946;28;20077;-80
2022/10/31 00:14:33;;;;;;;14.75;8.50;;;13.80;99.90;;;;;;4998855;28;20044;-80
2022/10/31 00:16:59;;;;;;;13.80;8.45;;;13.80;99.90;;;;;;4998506;28;20072;-80
2022/10/31 00:19:24;;;;;;;14.63;8.85;;;13.70;99.90;;;;;;5016465;28;20041;-80
2022/10/31 00:21:52;;;;;;;14.15;9.02;;;13.80;99.90;;;;;;4997196;28;20037;-80
2022/10/31 00:24:17;;;;;;;14.48;9.45;;;13.70;99.90;;;;;;4998437;28;20037;-80
2022/10/31 00:26:43;;;;;;;14.85;9.05;;;13.70;99.90;;;;;;4998407;28;20029;-80
2022/10/31 00:29:08;;;;;;;15.55;8.65;;;13.70;99.90;;;;;;5014407;28;20125;-80
2022/10/31 00:31:34;;;;;;;14.10;9.23;;;13.60;99.90;;;;;;4981988;28;20113;-81
2022/10/31 00:34:02;;;;;;;17.08;9.63;;;13.60;99.90;;;;;;5014403;28;20473;-80
2022/10/31 00:36:28;;;;;;;13.85;8.48;;;13.60;99.90;;;;;;5014432;28;20444;-81
2022/10/31 00:38:53;;;;;;;15.63;9.20;;;13.60;99.90;;;;;;4998587;28;20034;-80
2022/10/31 00:41:22;;;;;;;13.48;9.70;;;13.60;99.90;;;;;;4981850;28;20033;-80
2022/10/31 00:43:47;;;;;;;16.35;9.95;;;13.70;99.90;;;;;;4981929;28;20509;-81
2022/10/31 00:46:13;;;;;;;14.55;9.27;;;13.60;99.90;;;;;;5014659;28;20034;-81
2022/10/31 00:48:39;;;;;;;15.18;9.07;;;13.60;99.90;;;;;;5014310;28;20088;-81
2022/10/31 00:51:05;;;;;;;14.25;9.23;;;13.60;99.90;;;;;;4998282;28;20359;-81
2022/10/31 00:53:31;;;;;;;17.08;9.80;;;13.50;99.90;;;;;;5014582;28;20030;-80
2022/10/31 00:55:56;;;;;;;14.68;9.10;;;13.50;99.90;;;;;;4997883;28;20441;-80
2022/10/31 00:58:22;;;;;;;12.65;8.70;;;13.50;99.90;;;;;;4998235;28;20037;-80
2022/10/31 01:00:54;;;;;;;15.20;8.95;;;13.50;99.90;;;;;;4981576;28;20026;-80
2022/10/31 01:03:21;;;;;;;17.92;9.15;;;13.50;99.90;;;;;;4997765;28;20429;-81
2022/10/31 01:05:59;;;;;;;15.75;9.82;;;13.50;99.90;;;;;;5013848;28;20089;-81
2022/10/31 01:08:30;;;;;;;17.33;9.25;;;13.50;99.90;;;;;;5013566;28;20022;-81
2022/10/31 01:11:10;;;;;;;17.33;9.10;;;13.40;99.90;;;;;;4982139;28;20033;-81
2022/10/31 01:13:35;;;;;;;17.02;9.77;;;13.50;99.90;;;;;;5013699;28;20049;-81
2022/10/31 01:16:03;;;;;;;14.15;9.55;;;13.50;99.90;;;;;;5014895;28;20474;-81
2022/10/31 01:18:41;;;;;;;16.10;10.23;;;13.40;99.90;;;;;;5013699;28;20029;-83
2022/10/31 01:21:22;;;;;;;14.65;8.15;;;13.40;99.90;;;;;;5013690;28;20032;-83
2022/10/31 01:23:49;;;;;;;13.10;7.80;;;13.40;99.90;;;;;;5013296;28;20077;-83
2022/10/31 01:26:17;;;;;;;13.45;8.38;;;13.40;99.90;;;;;;5013588;28;20038;-82
2022/10/31 01:28:48;;;;;;;11.60;7.32;;;13.30;99.90;;;;;;5014937;28;20100;-83
2022/10/31 01:31:17;;;;;;;12.98;7.90;;;13.30;99.90;;;;;;5013499;28;20116;-83
2022/10/31 01:33:42;;;;;;;14.30;8.40;;;13.30;99.90;;;;;;5013491;28;20471;-83
2022/10/31 01:36:21;;;;;;;16.45;8.38;;;13.30;99.90;;;;;;5013429;28;20030;-83
2022/10/31 01:38:51;;;;;;;12.38;7.80;;;13.30;99.90;;;;;;5013453;28;20076;-83
2022/10/31 01:41:22;;;;;;;15.15;8.52;;;13.20;99.90;;;;;;5014460;28;20030;-83
2022/10/31 01:43:49;;;;;;;13.88;7.45;;;13.20;99.90;;;;;;5013138;28;20049;-83
2022/10/31 01:46:20;;;;;;;13.55;7.18;;;13.20;99.90;;;;;;5013124;28;20030;-83
2022/10/31 01:48:49;;;;;;;11.38;6.97;;;13.10;99.90;;;;;;5013071;28;20022;-83
2022/10/31 01:51:18;;;;;;;11.38;6.38;;;13.10;99.90;;;;;;5013262;28;20026;-83
2022/10/31 01:53:45;;;;;;;10.30;6.47;;;13.20;99.90;;;;;;5012917;28;20116;-83
2022/10/31 01:56:11;;;;;;;12.90;6.80;;;13.10;99.90;;;;;;5013029;28;20026;-83
2022/10/31 01:58:37;;;;;;;15.90;7.28;;;13.10;99.90;;;;;;4980776;28;20476;-83
2022/10/31 02:01:03;;;;;;;10.88;6.88;;;13.10;99.90;;;;;;4996607;28;20061;-83
2022/10/31 02:03:30;;;;;;;14.98;7.95;;;13.10;99.90;;;;;;4996662;28;20026;-83
2022/10/31 02:06:19;;;;;;;16.45;7.45;;;13.10;99.90;;;;;;5013899;28;20039;-83
2022/10/31 02:08:45;;;;;;;14.90;8.57;;;13.00;99.90;;;;;;5013492;28;20397;-83
2022/10/31 02:11:12;;;;;;;15.90;9.32;;;13.00;99.90;;;;;;4997464;28;20037;-82
2022/10/31 02:13:38;;;;;;;15.35;9.77;;;13.10;99.90;;;;;;4980885;28;20034;-83
2022/10/31 02:16:06;;;;;;;16.08;8.90;;;13.10;99.90;;;;;;5013743;28;20435;-83
2022/10/31 02:18:32;;;;;;;14.38;9.43;;;13.00;99.90;;;;;;4997447;28;20044;-83
2022/10/31 02:21:22;;;;;;;17.27;9.07;;;13.00;99.90;;;;;;5012701;28;20034;-82
2022/10/31 02:24:25;;;;;;;13.90;8.38;;;13.00;99.90;;;;;;5012720;28;20058;-82
2022/10/31 02:26:54;;;;;;;14.20;8.88;;;13.00;99.90;;;;;;5012505;28;20088;-82
2022/10/31 02:30:04;;;;;;;14.93;9.20;;;13.00;99.90;;;;;;5012600;28;20022;-82
2022/10/31 02:33:01;;;;;;;13.98;9.23;;;12.90;99.90;;;;;;5013179;28;20030;-83
2022/10/31 02:36:16;;;;;;;14.85;8.65;;;12.90;99.90;;;;;;4995780;28;20037;-83
2022/10/31 02:38:55;;;;;;;14.77;8.88;;;12.90;99.90;;;;;;5012514;28;20037;-83
2022/10/31 02:41:33;;;;;;;13.68;8.80;;;12.90;99.90;;;;;;5012246;28;20084;-83
2022/10/31 02:44:20;;;;;;;15.63;9.52;;;12.80;99.90;;;;;;5012091;28;20508;-83
2022/10/31 02:47:23;;;;;;;15.57;10.32;;;12.80;99.90;;;;;;5012523;28;20034;-80
2022/10/31 02:50:23;;;;;;;16.08;11.02;;;12.80;99.90;;;;;;5012334;28;20026;-80
2022/10/31 02:52:53;;;;;;;17.80;10.50;;;12.70;99.90;;;;;;4980896;28;20034;-80
2022/10/31 02:55:24;;;;;;;19.90;11.35;;;12.70;99.90;;;;;;5012299;28;20030;-80
2022/10/31 02:57:58;;;;;;;19.30;11.85;;;12.60;99.90;;;;;;5012331;28;20030;-80
2022/10/31 03:00:24;;;;;;;15.88;10.57;;;12.60;99.90;;;;;;5012171;28;20026;-80
2022/10/31 03:03:01;;;;;;;17.50;11.23;;;12.60;99.90;;;;;;4994613;28;20048;-80
2022/10/31 03:05:37;;;;;;;18.90;11.80;;;12.60;99.90;;;;;;5012111;28;20022;-80
2022/10/31 03:08:09;;;;;;;19.00;10.98;;;12.50;99.90;;;;;;5012096;28;20022;-81
2022/10/31 03:10:52;;;;;;;22.55;11.55;;;12.50;99.90;;;;;;5012108;28;20029;-80
2022/10/31 03:13:38;;;;;;;16.00;10.50;;;12.50;99.90;;;;;;5013462;28;20030;-81
2022/10/31 03:16:30;;;;;;;17.10;10.73;;;12.40;99.90;;;;;;5011900;28;20056;-80
2022/10/31 03:19:05;;;;;;;14.75;10.20;;;12.40;99.90;;;;;;5012011;28;20022;-80
2022/10/31 03:21:44;;;;;;;18.33;10.55;;;12.40;99.90;;;;;;5011923;28;20026;-80
2022/10/31 03:24:11;;;;;;;19.27;10.52;;;12.30;99.90;;;;;;5013100;28;20121;-81
2022/10/31 03:26:41;;;;;;;18.73;10.85;;;12.30;99.90;;;;;;4995895;28;20026;-80
2022/10/31 03:29:10;;;;;;;15.82;10.32;;;12.30;99.90;;;;;;5012086;28;20490;-80
2022/10/31 03:31:52;;;;;;;16.17;11.20;;;12.20;99.90;;;;;;5012236;28;20025;-81
2022/10/31 03:34:19;;;;;;;17.30;10.43;;;12.20;99.90;;;;;;5012119;28;20017;-81
2022/10/31 03:36:48;;;;;;;15.93;9.95;;;12.20;99.90;;;;;;5011957;28;20028;-81
2022/10/31 03:39:16;;;;;;;18.00;10.70;;;12.10;99.90;;;;;;5012206;28;20029;-80
2022/10/31 03:41:55;;;;;;;18.45;10.98;;;12.10;99.90;;;;;;4996015;28;20386;-81
2022/10/31 03:44:30;;;;;;;18.70;11.18;;;12.10;99.90;;;;;;5011777;28;20021;-81
2022/10/31 03:46:56;;;;;;;20.45;10.95;;;12.00;99.90;;;;;;5011810;28;20026;-81
2022/10/31 03:49:22;;;;;;;17.05;10.38;;;12.00;99.90;;;;;;4995773;28;20029;-80
2022/10/31 03:52:03;;;;;;;21.30;11.25;;;12.00;99.90;;;;;;5011790;28;20030;-81
2022/10/31 03:54:44;;;;;;;18.27;12.02;;;12.00;99.90;;;;;;5011859;28;20041;-81
2022/10/31 03:57:13;;;;;;;19.27;12.48;;;12.00;99.90;;;;;;5013116;28;20018;-80
2022/10/31 03:59:47;;;;;;;20.75;11.68;;;12.00;99.90;;;;;;5015144;28;20034;-81
2022/10/31 04:02:16;;;;;;;16.05;10.48;;;11.90;99.90;;;;;;5015112;28;20022;-81
2022/10/31 04:04:44;;;;;;;17.75;10.77;;;11.90;99.90;;;;;;5014952;28;20545;-80
2022/10/31 04:07:11;;;;;;;18.58;10.88;;;11.90;99.90;;;;;;5015084;28;20018;-80
2022/10/31 04:09:41;;;;;;;21.25;10.48;;;11.90;99.90;;;;;;5014969;28;20030;-81
2022/10/31 04:12:11;;;;;;;16.45;10.98;;;11.90;99.90;;;;;;5014880;28;20497;-81
2022/10/31 04:14:39;;;;;;;16.17;10.05;;;11.80;99.90;;;;;;5015396;28;20018;-81
2022/10/31 04:17:11;;;;;;;17.90;10.98;;;11.80;99.90;;;;;;4997805;28;20038;-81
2022/10/31 04:19:37;;;;;;;17.55;9.30;;;11.80;99.90;;;;;;5015159;28;20057;-82
2022/10/31 04:22:03;;;;;;;11.90;7.82;;;11.80;99.90;;;;;;5015034;28;20061;-82
2022/10/31 04:24:31;;;;;;;11.63;7.55;;;11.80;99.90;;;;;;5014449;28;20096;-82
2022/10/31 04:26:57;;;;;;;10.65;6.75;;;11.70;99.90;;;;;;4998835;28;20458;-82
2022/10/31 04:29:22;;;;;;;10.45;6.53;;;11.60;99.90;;;;;;5014608;28;20072;-82
2022/10/31 04:31:48;;;;;;;10.27;6.50;;;11.70;99.90;;;;;;5015631;28;20046;-82
2022/10/31 04:34:16;;;;;;;11.77;6.05;;;11.60;99.90;;;;;;4998308;28;20030;-82
2022/10/31 04:36:42;;;;;;;10.57;6.13;;;11.60;99.90;;;;;;5014558;28;20061;-82
2022/10/31 04:39:10;;;;;;;8.63;5.88;;;11.50;99.90;;;;;;4998299;28;20061;-82
2022/10/31 04:41:36;;;;;;;10.23;6.22;;;11.60;99.90;;;;;;4983528;28;20409;-82
2022/10/31 04:44:01;;;;;;;10.27;6.72;;;11.50;99.90;;;;;;4998374;28;20175;-83
2022/10/31 04:46:27;;;;;;;9.80;6.13;;;11.50;99.90;;;;;;4998441;28;20037;-82
2022/10/31 04:48:53;;;;;;;10.32;6.95;;;11.50;99.90;;;;;;5014461;28;20041;-82
2022/10/31 04:51:18;;;;;;;10.20;6.43;;;11.50;99.90;;;;;;5013860;28;20046;-82
2022/10/31 04:53:44;;;;;;;9.50;6.10;;;11.50;99.90;;;;;;4982113;28;20033;-82
2022/10/31 04:56:10;;;;;;;10.52;6.70;;;11.40;99.90;;;;;;5014601;28;20040;-82
2022/10/31 04:58:35;;;;;;;11.77;6.72;;;11.50;99.90;;;;;;5014229;28;20026;-82
2022/10/31 05:01:01;;;;;;;7.70;5.53;;;11.40;99.90;;;;;;4997549;28;20036;-82
2022/10/31 05:03:26;;;;;;;9.87;6.43;;;11.40;99.90;;;;;;4981147;28;20475;-82
2022/10/31 05:05:52;;;;;;;11.20;5.93;;;11.40;99.90;;;;;;4988385;28;20041;-80
2022/10/31 05:08:18;;;;;;;10.80;6.50;;;11.30;99.90;;;;;;5001899;28;20018;-80
2022/10/31 05:10:43;;;;;;;11.57;7.60;;;11.30;99.90;;;;;;4977975;28;20033;-81
2022/10/31 05:13:09;;;;;;;12.50;7.70;;;11.30;99.90;;;;;;4978469;28;20034;-81
2022/10/31 05:15:35;;;;;;;13.13;8.70;;;11.30;99.90;;;;;;4994232;28;20030;-81
2022/10/31 05:18:01;;;;;;;12.73;7.80;;;11.30;99.90;;;;;;5010276;28;20030;-81
2022/10/31 05:20:29;;;;;;;14.77;8.43;;;11.30;99.90;;;;;;4994310;28;20088;-81
2022/10/31 05:22:56;;;;;;;11.30;7.47;;;11.30;99.90;;;;;;4995195;28;20038;-81
2022/10/31 05:25:26;;;;;;;13.07;7.63;;;11.30;99.90;;;;;;4993940;28;20490;-82
2022/10/31 05:27:55;;;;;;;11.77;7.10;;;11.20;99.90;;;;;;5010557;28;20104;-82
2022/10/31 05:30:24;;;;;;;13.80;7.55;;;11.20;99.90;;;;;;4994249;28;20031;-82
2022/10/31 05:32:50;;;;;;;13.07;7.57;;;11.30;99.90;;;;;;5010190;28;20026;-82
2022/10/31 05:35:19;;;;;;;12.07;8.00;;;11.20;99.90;;;;;;5010200;28;20126;-81
2022/10/31 05:37:45;;;;;;;13.77;8.73;;;11.30;99.90;;;;;;5010078;28;20041;-81
2022/10/31 05:40:13;;;;;;;14.97;7.93;;;11.20;99.90;;;;;;4977875;28;20030;-81
2022/10/31 05:42:39;;;;;;;13.83;7.77;;;11.30;99.90;;;;;;5009881;28;20045;-81
2022/10/31 05:45:10;;;;;;;10.93;7.75;;;11.30;99.90;;;;;;5009875;28;20143;-80
2022/10/31 05:47:36;;;;;;;10.70;7.10;;;11.30;99.90;;;;;;4999490;28;20398;-81
2022/10/31 05:50:02;;;;;;;10.50;6.60;;;11.30;99.90;;;;;;4980799;28;20026;-80
2022/10/31 05:52:28;;;;;;;10.80;6.60;;;11.30;99.90;;;;;;5013043;28;20034;-81
2022/10/31 05:54:53;;;;;;;13.00;7.20;;;11.20;99.90;;;;;;4996758;28;20540;-81
2022/10/31 05:57:19;;;;;;;10.57;7.18;;;11.30;99.90;;;;;;5013028;28;20121;-81
2022/10/31 05:59:47;;;;;;;15.43;7.18;;;11.30;99.90;;;;;;5012996;28;20497;-81
2022/10/31 06:02:13;;;;;;;10.82;7.22;;;11.30;99.90;;;;;;4996407;28;20062;-80
2022/10/31 06:04:38;;;;;;;11.98;8.00;;;11.30;99.90;;;;;;5012849;28;20026;-79
2022/10/31 06:07:04;;;;;;;16.77;8.35;;;11.30;99.90;;;;;;4980400;28;20037;-80
2022/10/31 06:09:30;;;;;;;12.48;8.82;;;11.30;99.90;;;;;;5000455;28;20475;-79
2022/10/31 06:11:55;;;;;;;18.88;9.65;;;11.30;99.90;;;;;;4993356;28;20482;-79
2022/10/31 06:14:28;;;;;;;16.42;9.15;;;11.30;99.90;;;;;;4976922;28;20034;-79
2022/10/31 06:16:55;;;;;;;19.75;9.80;;;11.30;99.90;;;;;;4976840;28;20035;-80
2022/10/31 06:19:21;;;;;;;17.93;10.33;;;11.30;99.90;;;;;;5002320;28;20037;-80
2022/10/31 06:21:46;;;;;;;18.30;11.10;;;11.30;99.90;;;;;;5012945;28;20026;-80
2022/10/31 06:24:12;;;;;;;22.42;11.60;;;11.20;99.90;;;;;;5012416;28;20471;-80
2022/10/31 06:26:38;;;;;;;21.23;11.00;;;11.20;99.90;;;;;;4983752;28;20414;-80
2022/10/31 06:29:03;;;;;;;26.53;10.80;;;11.20;99.90;;;;;;5006678;28;20022;-80
2022/10/31 06:31:29;;;;;;;19.90;11.10;;;11.20;99.90;;;;;;4981297;28;20041;-80
2022/10/31 06:33:55;;;;;;;22.07;12.67;;;11.20;99.90;;;;;;5013284;28;20030;-80
2022/10/31 06:36:20;;;;;;;26.43;12.13;;;11.20;99.90;;;;;;4973491;28;20898;-80
2022/10/31 06:38:46;;;;;;;26.20;12.43;;;11.30;99.90;;;;;;4995053;28;20022;-79
2022/10/31 06:41:11;;;;;;;20.98;11.65;;;11.20;99.90;;;;;;4994932;28;20027;-79
2022/10/31 06:43:37;;;;;;;26.73;13.23;;;11.20;99.90;;;;;;5011912;28;20125;-80
2022/10/31 06:46:04;;;;;;;30.80;13.20;;;11.20;99.90;;;;;;4995349;28;20084;-80
2022/10/31 06:48:31;;;;;;;30.47;14.27;;;11.20;99.90;;;;;;5012628;28;20022;-79
2022/10/31 06:50:59;;;;;;;28.70;13.73;;;11.10;99.90;;;;;;5011812;28;20018;-79
2022/10/31 06:53:25;;;;;;;21.13;13.57;;;11.20;99.90;;;;;;5002477;28;20654;-79
2022/10/31 06:55:54;;;;;;;22.30;14.18;;;11.20;99.90;;;;;;4984607;28;20160;-80
2022/10/31 06:58:20;;;;;;;24.23;13.63;;;11.20;99.90;;;;;;4992695;28;20033;-79
2022/10/31 07:00:45;;;;;;;23.73;13.27;;;11.20;99.90;;;;;;4994045;28;20026;-78
2022/10/31 07:03:13;;;;;;;23.60;13.48;;;11.20;99.90;;;;;;5026523;28;20494;-78
2022/10/31 07:05:39;;;;;;;23.93;12.77;;;11.30;99.90;;;;;;5010415;28;20168;-79
2022/10/31 07:08:08;;;;;;;20.83;13.40;;;11.20;99.90;;;;;;5010355;28;20104;-79
2022/10/31 07:10:35;;;;;;;19.20;12.15;;;11.20;99.90;;;;;;5010015;28;20113;-80
2022/10/31 07:13:03;;;;;;;19.05;12.40;;;11.20;99.90;;;;;;5010396;28;20037;-81
2022/10/31 07:15:32;;;;;;;21.73;12.60;;;11.20;99.90;;;;;;5010361;28;20121;-80
2022/10/31 07:18:02;;;;;;;21.50;12.70;;;11.30;99.90;;;;;;5010388;28;20105;-80
2022/10/31 07:20:29;;;;;;;20.92;13.60;;;11.30;99.90;;;;;;5010033;28;20132;-79
2022/10/31 07:22:54;;;;;;;20.00;13.32;;;11.40;99.90;;;;;;4993608;28;20474;-80
2022/10/31 07:25:21;;;;;;;18.95;12.77;;;11.40;99.90;;;;;;4976331;28;20085;-80
2022/10/31 07:27:47;;;;;;;26.08;14.25;;;11.50;99.90;;;;;;5008038;28;20018;-81
2022/10/31 07:30:14;;;;;;;22.63;13.68;;;11.60;99.90;;;;;;5008154;28;20088;-80
2022/10/31 07:32:47;;;;;;;25.55;15.07;;;11.60;99.90;;;;;;5012979;28;20030;-81
2022/10/31 07:35:18;;;;;;;24.05;14.48;;;11.70;99.90;;;;;;5012188;28;20542;-80
2022/10/31 07:37:43;;;;;;;23.45;15.10;;;11.70;99.90;;;;;;5012931;28;20030;-81
2022/10/31 07:40:10;;;;;;;23.63;14.43;;;11.80;99.90;;;;;;5012291;28;20474;-81
2022/10/31 07:42:43;;;;;;;28.85;15.05;;;11.90;99.90;;;;;;5012030;28;20497;-81
2022/10/31 07:45:11;;;;;;;26.45;16.63;;;12.00;99.90;;;;;;5013561;28;20044;-81
2022/10/31 07:47:48;;;;;;;26.02;15.20;;;12.00;99.90;;;;;;5012824;28;20026;-81
2022/10/31 07:50:17;;;;;;;26.85;14.60;;;12.00;99.90;;;;;;5011453;28;20014;-81
2022/10/31 07:52:49;;;;;;;23.27;15.05;;;12.10;99.90;;;;;;5014586;28;20029;-81
2022/10/31 07:55:14;;;;;;;25.50;15.52;;;12.10;99.90;;;;;;5012118;28;20124;-81
2022/10/31 07:57:40;;;;;;;26.75;13.90;;;12.20;99.90;;;;;;4996009;28;20577;-81
2022/10/31 08:00:10;;;;;;;30.50;15.65;;;12.30;99.90;;;;;;4995898;28;20381;-81
2022/10/31 08:02:44;;;;;;;25.95;14.73;;;12.40;99.90;;;;;;5013431;28;20375;-82
2022/10/31 08:05:10;;;;;;;22.63;13.65;;;12.50;99.90;;;;;;5013624;28;20022;-82
2022/10/31 08:07:41;;;;;;;21.98;13.80;;;12.50;99.90;;;;;;5013650;28;20369;-81
2022/10/31 08:10:12;;;;;;;22.52;15.27;;;12.60;99.90;;;;;;5013491;28;20017;-82
2022/10/31 08:12:56;;;;;;;25.08;13.18;;;12.70;99.90;;;;;;5013792;28;20553;-82
2022/10/31 08:15:22;;;;;;;19.50;12.50;;;12.80;99.90;;;;;;5014879;28;20030;-81
2022/10/31 08:17:48;;;;;;;21.98;13.48;;;12.90;99.90;;;;;;5013408;28;20093;-81
2022/10/31 08:20:14;;;;;;;20.45;12.95;;;13.00;99.90;;;;;;5013939;28;20471;-81
2022/10/31 08:22:42;;;;;;;20.73;12.77;;;13.00;99.90;;;;;;4997090;28;20478;-82
2022/10/31 08:25:08;;;;;;;22.10;14.15;;;13.10;99.90;;;;;;4994667;28;20049;-82
2022/10/31 08:27:34;;;;;;;20.65;13.15;;;13.20;99.90;;;;;;5013801;28;20022;-79
2022/10/31 08:29:59;;;;;;;20.13;12.05;;;13.20;99.90;;;;;;5002091;28;20026;-80
2022/10/31 08:32:25;;;;;;;17.02;11.48;;;13.30;99.90;;;;;;4979021;28;20057;-80
2022/10/31 08:34:51;;;;;;;18.27;12.13;;;13.40;99.90;;;;;;4994909;28;20057;-81
2022/10/31 08:37:19;;;;;;;17.27;11.75;;;13.40;99.90;;;;;;4996367;28;20041;-80
2022/10/31 08:39:48;;;;;;;21.52;11.90;;;13.50;99.90;;;;;;4979187;28;20041;-80
2022/10/31 08:42:14;;;;;;;17.52;11.15;;;13.50;99.90;;;;;;4977634;28;20030;-80
2022/10/31 08:44:39;;;;;;;17.80;11.63;;;13.60;99.90;;;;;;4978700;28;20053;-80
2022/10/31 08:47:05;;;;;;;19.95;11.88;;;13.60;99.90;;;;;;4978962;28;20137;-88
2022/10/31 08:49:31;;;;;;;17.40;10.75;;;13.80;99.90;;;;;;4979219;28;20026;-88
2022/10/31 08:51:56;;;;;;;17.42;11.48;;;13.80;99.90;;;;;;4995182;28;20026;-88
2022/10/31 08:54:22;;;;;;;19.27;11.85;;;14.00;99.90;;;;;;4979287;28;20127;-88
2022/10/31 08:56:47;;;;;;;18.90;11.63;;;14.10;99.90;;;;;;4979771;28;20044;-89
2022/10/31 08:59:13;;;;;;;19.02;11.07;;;14.30;99.90;;;;;;4980057;28;20461;-87
2022/10/31 09:01:39;;;;;;;17.85;11.73;;;14.30;99.90;;;;;;4995236;28;20022;-87
2022/10/31 09:04:04;;;;;;;18.13;11.32;;;14.40;99.90;;;;;;4980006;28;20379;-89
2022/10/31 09:06:30;;;;;;;19.60;11.77;;;14.60;99.90;;;;;;4978913;28;20077;-89
2022/10/31 09:08:56;;;;;;;17.45;11.32;;;14.70;99.90;;;;;;4962873;28;20078;-88
2022/10/31 09:11:21;;;;;;;19.67;11.45;;;14.80;99.90;;;;;;4962995;28;20433;-89
2022/10/31 09:13:47;;;;;;;20.58;11.40;;;14.90;99.90;;;;;;4963358;28;20026;-89
2022/10/31 09:16:13;;;;;;;29.55;11.60;;;15.00;99.90;;;;;;4980995;28;20479;-89
2022/10/31 09:18:38;;;;;;;14.63;10.10;;;15.10;99.90;;;;;;4998847;28;20398;-88
2022/10/31 09:21:04;;;;;;;15.38;9.65;;;15.30;99.90;;;;;;5007234;28;20101;-88
2022/10/31 09:23:30;;;;;;;18.63;10.23;;;15.40;99.90;;;;;;5002435;28;20042;-88
2022/10/31 09:25:59;;;;;;;16.70;9.98;;;15.50;99.90;;;;;;4995274;28;20018;-88
2022/10/31 09:28:27;;;;;;;17.63;9.13;;;15.50;99.90;;;;;;5014376;28;20057;-89
2022/10/31 09:30:55;;;;;;;15.68;9.63;;;15.60;99.90;;;;;;5014226;28;20448;-89
2022/10/31 09:33:21;;;;;;;15.55;9.77;;;15.70;99.90;;;;;;4997980;28;20034;-89
2022/10/31 09:35:47;;;;;;;14.63;9.30;;;15.70;99.90;;;;;;5012981;28;20072;-88
2022/10/31 09:38:21;;;;;;;16.13;9.98;;;15.80;99.90;;;;;;4981773;28;20022;-87
2022/10/31 09:40:48;;;;;;;;;;;15.80;99.90;;;;;;5014849;28;20105;-86
2022/10/31 09:43:20;;;;;;;13.82;8.75;;;15.80;99.90;;;;;;5014115;28;20270;-89
2022/10/31 09:46:10;;;;;;;15.55;9.82;;;15.90;99.90;;;;;;5011325;28;20034;-88
2022/10/31 09:48:36;;;;;;;16.52;10.60;;;15.90;99.90;;;;;;5014230;28;20382;-88
2022/10/31 09:51:10;;;;;;;14.73;11.00;;;16.00;99.90;;;;;;5013915;28;20026;-88
2022/10/31 09:53:48;;;;;;;19.75;11.93;;;16.00;99.90;;;;;;5014005;28;20018;-89
2022/10/31 09:56:18;;;;;;;19.33;10.98;;;16.10;99.90;;;;;;5015056;28;20022;-88
2022/10/31 09:58:47;;;;;;;20.80;11.63;;;16.20;99.90;;;;;;5014014;28;20363;-89
2022/10/31 10:01:35;;;;;;;18.58;12.98;;;16.20;99.90;;;;;;5014152;28;20057;-88
2022/10/31 10:04:20;;;;;;;18.48;11.27;;;16.20;99.90;;;;;;5013902;28;20037;-89
2022/10/31 10:06:49;;;;;;;17.08;12.07;;;16.30;99.90;;;;;;4987174;28;20106;-89
2022/10/31 10:09:15;;;;;;;23.35;12.75;;;16.30;99.90;;;;;;5011432;28;20053;-90
2022/10/31 10:11:46;;;;;;;23.95;14.15;;;16.30;99.90;;;;;;4997383;28;20438;-89
2022/10/31 10:14:47;;;;;;;20.05;13.70;;;16.40;99.90;;;;;;5013519;28;20061;-90
2022/10/31 10:17:22;;;;;;;20.88;13.13;;;16.60;99.90;;;;;;5013801;28;20026;-89
2022/10/31 10:20:08;;;;;;;21.63;13.77;;;16.80;99.90;;;;;;5013676;28;20049;-88
2022/10/31 10:23:06;;;;;;;19.77;13.63;;;16.80;99.90;;;;;;5013408;28;20124;-88
2022/10/31 10:25:40;;;;;;;22.45;13.32;;;16.90;99.90;;;;;;4997290;28;20049;-88
2022/10/31 10:28:25;;;;;;;26.23;15.63;;;16.90;99.90;;;;;;4997171;28;20053;-87
2022/10/31 10:31:03;;;;;;;23.83;13.88;;;16.90;99.90;;;;;;5013526;28;20109;-87
2022/10/31 10:33:39;;;;;;;22.20;14.30;;;16.80;99.90;;;;;;5013165;28;20503;-88
2022/10/31 10:36:29;;;;;;;27.20;14.90;;;16.90;99.90;;;;;;5013265;28;20533;-88
2022/10/31 10:39:00;;;;;;;23.48;14.68;;;16.90;99.90;;;;;;5002548;28;20030;-88
2022/10/31 10:41:32;;;;;;;22.67;15.43;;;16.80;99.90;;;;;;5002752;28;20026;-88
2022/10/31 10:43:57;;;;;;;24.25;14.40;;;16.80;99.90;;;;;;4994496;28;20053;-88
2022/10/31 10:49:23;;;;;;;23.08;14.10;;;16.70;99.60;;;;;;5001207;28;20037;-87
2022/10/31 10:52:19;;;;;;;22.05;14.23;;;16.80;99.70;;;;;;5004545;28;20038;-87
2022/10/31 10:54:50;;;;;;;24.60;14.40;;;16.80;99.70;;;;;;4990938;28;20053;-88
2022/10/31 10:57:28;;;;;;;27.23;13.93;;;17.00;99.90;;;;;;4995663;28;20030;-88
2022/10/31 10:59:54;;;;;;;24.05;12.85;;;17.20;99.90;;;;;;4994985;28;20026;-88
2022/10/31 11:02:24;;;;;;;21.58;12.50;;;17.60;99.90;;;;;;4978436;28;20125;-89
2022/10/31 11:04:54;;;;;;;22.25;12.80;;;17.90;99.90;;;;;;4994085;28;20498;-88
2022/10/31 11:07:19;;;;;;;23.35;12.23;;;18.10;99.90;;;;;;4996748;28;20491;-88
2022/10/31 11:09:46;;;;;;;20.02;11.13;;;18.40;99.90;;;;;;4981325;28;20033;-88
2022/10/31 11:12:33;;;;;;;18.92;11.40;;;18.70;99.80;;;;;;5016798;28;20112;-87
2022/10/31 11:15:07;;;;;;;19.33;11.63;;;18.90;98.50;;;;;;5014832;28;20121;-88
2022/10/31 11:17:40;;;;;;;22.45;12.05;;;18.90;97.80;;;;;;4998014;28;20034;-89
2022/10/31 11:20:12;;;;;;;19.27;11.38;;;19.00;97.30;;;;;;5013648;28;20410;-88
2022/10/31 11:22:37;;;;;;;18.60;12.02;;;19.20;96.70;;;;;;4998073;28;20030;-86
2022/10/31 11:25:23;;;;;;;19.42;12.30;;;19.30;96.10;;;;;;4997785;28;20100;-88
2022/10/31 11:28:00;;;;;;;22.17;12.90;;;19.30;95.30;;;;;;4998506;28;20034;-88
2022/10/31 11:30:26;;;;;;;21.88;12.70;;;19.30;94.60;;;;;;5002367;28;20037;-88
2022/10/31 11:32:52;;;;;;;20.25;12.00;;;19.30;94.30;;;;;;5000060;28;20029;-88
2022/10/31 11:35:22;;;;;;;19.67;12.88;;;19.30;93.90;;;;;;5000317;28;20049;-84
2022/10/31 11:37:50;;;;;;;21.55;13.35;;;19.30;93.60;;;;;;5015862;28;20022;-87
2022/10/31 11:40:22;;;;;;;22.67;13.98;;;19.40;93.20;;;;;;5016219;28;20029;-88
2022/10/31 11:42:50;;;;;;;25.48;14.00;;;19.40;92.80;;;;;;5016001;28;20037;-88
2022/10/31 11:45:18;;;;;;;24.95;14.98;;;19.50;92.40;;;;;;5016236;28;20492;-88
2022/10/31 11:47:48;;;;;;;24.17;15.00;;;19.60;92.20;;;;;;5016387;28;20022;-89
2022/10/31 11:50:39;;;;;;;22.65;13.40;;;19.60;91.80;;;;;;5016187;28;20025;-88
2022/10/31 11:53:17;;;;;;;22.70;13.40;;;19.60;91.50;;;;;;5015537;28;20030;-86
2022/10/31 11:55:46;;;;;;;26.58;15.05;;;19.70;91.10;;;;;;5015489;28;20037;-83
2022/10/31 11:58:25;;;;;;;25.13;16.00;;;19.70;90.70;;;;;;5016123;28;20183;-85
2022/10/31 12:00:54;;;;;;;24.20;15.50;;;19.60;90.40;;;;;;5016117;28;20532;-88
2022/10/31 12:03:23;;;;;;;24.92;15.85;;;19.60;90.20;;;;;;5018444;28;20030;-89
2022/10/31 12:06:18;;;;;;;23.17;14.90;;;19.50;90.20;;;;;;5018946;28;20018;-88
2022/10/31 12:08:44;;;;;;;24.35;15.25;;;19.50;90.20;;;;;;4983870;28;20038;-89
2022/10/31 12:11:40;;;;;;;26.42;15.77;;;19.40;90.30;;;;;;5015568;28;20022;-87
2022/10/31 12:14:17;;;;;;;21.63;14.02;;;19.50;90.40;;;;;;5015787;28;20018;-89
2022/10/31 12:16:50;;;;;;;24.35;14.35;;;19.60;90.40;;;;;;5015130;28;20120;-88
2022/10/31 12:19:27;;;;;;;25.63;14.43;;;19.80;90.70;;;;;;5015239;28;20018;-88
2022/10/31 12:22:22;;;;;;;27.10;15.32;;;20.10;90.50;;;;;;5014969;28;20038;-84
2022/10/31 12:25:21;;;;;;;23.45;15.85;;;20.30;89.40;;;;;;5002843;28;20042;-88
2022/10/31 12:27:59;;;;;;;23.63;16.27;;;20.30;88.80;;;;;;4996399;28;20027;-84
2022/10/31 12:30:36;;;;;;;27.85;16.80;;;20.30;87.30;;;;;;4995168;28;20034;-85
2022/10/31 12:33:11;;;;;;;24.58;16.35;;;20.30;86.60;;;;;;4995388;28;20019;-82
2022/10/31 12:35:50;;;;;;;25.67;17.63;;;20.20;86.30;;;;;;4996685;28;20037;-86
2022/10/31 12:38:20;;;;;;;26.83;16.73;;;20.10;86.30;;;;;;5015329;28;20120;-88
2022/10/31 12:41:22;;;;;;;26.00;16.25;;;20.10;86.30;;;;;;5014342;28;20441;-89
2022/10/31 12:44:06;;;;;;;22.52;15.40;;;20.10;86.50;;;;;;5014864;28;20034;-87
2022/10/31 12:46:54;;;;;;;;;;;20.10;86.90;;;;;;5015470;28;20466;-86
2022/10/31 12:49:41;;;;;;;23.23;14.65;;;20.40;87.50;;;;;;5014971;28;19909;-87
2022/10/31 12:52:26;;;;;;;25.70;15.55;;;20.60;86.90;;;;;;5015266;28;20026;-86
2022/10/31 12:55:03;;;;;;;21.77;14.23;;;20.80;86.30;;;;;;5015490;28;20030;-89